sensor_id;sensor_type;location;lat;lon;timestamp;P1;durP1;ratioP1;P2;durP2;ratioP2
22138;SDS011;25815;52.582;13.408;2022-09-09T00:02:19;8.00;;;6.85;;
22138;SDS011;25815;52.582;13.408;2022-09-09T00:05:29;9.93;;;6.68;;
22138;SDS011;25815;52.582;13.408;2022-09-09T00:07:43;7.35;;;6.65;;
22138;SDS011;25815;52.582;13.408;2022-09-09T00:10:16;7.50;;;6.40;;
22138;SDS011;25815;52.582;13.408;2022-09-09T00:12:58;9.15;;;6.38;;
22138;SDS011;25815;52.582;13.408;2022-09-09T00:15:26;7.60;;;6.38;;
22138;SDS011;25815;52.582;13.408;2022-09-09T00:23:19;6.50;;;5.80;;
22138;SDS011;25815;52.582;13.408;2022-09-09T00:28:31;6.80;;;5.88;;
22138;SDS011;25815;52.582;13.408;2022-09-09T00:31:10;7.47;;;5.97;;
22138;SDS011;25815;52.582;13.408;2022-09-09T00:33:37;6.20;;;5.60;;
22138;SDS011;25815;52.582;13.408;2022-09-09T00:36:04;7.10;;;5.72;;
22138;SDS011;25815;52.582;13.408;2022-09-09T00:38:36;6.50;;;5.78;;
22138;SDS011;25815;52.582;13.408;2022-09-09T00:43:31;6.75;;;5.95;;
22138;SDS011;25815;52.582;13.408;2022-09-09T00:46:05;8.57;;;5.47;;
22138;SDS011;25815;52.582;13.408;2022-09-09T00:48:51;6.60;;;5.60;;
22138;SDS011;25815;52.582;13.408;2022-09-09T00:54:08;6.75;;;6.05;;
22138;SDS011;25815;52.582;13.408;2022-09-09T00:56:41;10.38;;;6.05;;
22138;SDS011;25815;52.582;13.408;2022-09-09T00:59:16;8.25;;;5.88;;
22138;SDS011;25815;52.582;13.408;2022-09-09T01:01:48;6.78;;;6.03;;
22138;SDS011;25815;52.582;13.408;2022-09-09T01:04:16;6.53;;;5.82;;
22138;SDS011;25815;52.582;13.408;2022-09-09T01:06:45;7.63;;;5.95;;
22138;SDS011;25815;52.582;13.408;2022-09-09T01:12:03;7.93;;;6.55;;
22138;SDS011;25815;52.582;13.408;2022-09-09T01:17:14;9.18;;;6.57;;
22138;SDS011;25815;52.582;13.408;2022-09-09T01:22:10;9.30;;;7.07;;
22138;SDS011;25815;52.582;13.408;2022-09-09T01:24:38;8.25;;;6.80;;
22138;SDS011;25815;52.582;13.408;2022-09-09T01:27:06;7.75;;;6.95;;
22138;SDS011;25815;52.582;13.408;2022-09-09T01:29:32;8.85;;;7.25;;
22138;SDS011;25815;52.582;13.408;2022-09-09T01:32:00;7.20;;;6.07;;
22138;SDS011;25815;52.582;13.408;2022-09-09T01:34:36;8.20;;;7.13;;
22138;SDS011;25815;52.582;13.408;2022-09-09T01:37:07;10.20;;;7.03;;
22138;SDS011;25815;52.582;13.408;2022-09-09T01:39:34;7.90;;;7.10;;
22138;SDS011;25815;52.582;13.408;2022-09-09T01:42:01;8.00;;;7.10;;
22138;SDS011;25815;52.582;13.408;2022-09-09T01:44:27;7.97;;;6.97;;
22138;SDS011;25815;52.582;13.408;2022-09-09T01:46:55;10.70;;;6.93;;
22138;SDS011;25815;52.582;13.408;2022-09-09T01:49:21;8.07;;;7.03;;
22138;SDS011;25815;52.582;13.408;2022-09-09T01:51:49;8.13;;;7.28;;
22138;SDS011;25815;52.582;13.408;2022-09-09T01:54:15;8.50;;;7.63;;
22138;SDS011;25815;52.582;13.408;2022-09-09T01:56:44;9.90;;;7.70;;
22138;SDS011;25815;52.582;13.408;2022-09-09T01:59:24;8.63;;;7.20;;
22138;SDS011;25815;52.582;13.408;2022-09-09T02:04:32;11.73;;;7.78;;
22138;SDS011;25815;52.582;13.408;2022-09-09T02:07:01;8.63;;;7.70;;
22138;SDS011;25815;52.582;13.408;2022-09-09T02:09:28;7.78;;;6.97;;
22138;SDS011;25815;52.582;13.408;2022-09-09T02:11:57;8.00;;;6.70;;
22138;SDS011;25815;52.582;13.408;2022-09-09T02:14:27;9.55;;;7.32;;
22138;SDS011;25815;52.582;13.408;2022-09-09T02:16:55;8.23;;;7.43;;
22138;SDS011;25815;52.582;13.408;2022-09-09T02:21:50;8.10;;;7.22;;
22138;SDS011;25815;52.582;13.408;2022-09-09T02:24:18;8.98;;;7.38;;
22138;SDS011;25815;52.582;13.408;2022-09-09T02:26:44;9.77;;;7.60;;
22138;SDS011;25815;52.582;13.408;2022-09-09T02:29:12;8.10;;;7.30;;
22138;SDS011;25815;52.582;13.408;2022-09-09T02:31:39;8.87;;;7.70;;
22138;SDS011;25815;52.582;13.408;2022-09-09T02:34:06;8.85;;;7.68;;
22138;SDS011;25815;52.582;13.408;2022-09-09T02:36:35;8.35;;;7.55;;
22138;SDS011;25815;52.582;13.408;2022-09-09T02:39:03;7.80;;;7.00;;
22138;SDS011;25815;52.582;13.408;2022-09-09T02:41:31;8.70;;;6.57;;
22138;SDS011;25815;52.582;13.408;2022-09-09T02:43:58;8.93;;;7.50;;
22138;SDS011;25815;52.582;13.408;2022-09-09T02:46:34;8.15;;;6.70;;
22138;SDS011;25815;52.582;13.408;2022-09-09T02:54:21;8.70;;;7.43;;
22138;SDS011;25815;52.582;13.408;2022-09-09T02:56:52;9.60;;;7.00;;
22138;SDS011;25815;52.582;13.408;2022-09-09T02:59:19;9.40;;;7.25;;
22138;SDS011;25815;52.582;13.408;2022-09-09T03:01:45;7.88;;;6.57;;
22138;SDS011;25815;52.582;13.408;2022-09-09T03:04:11;9.40;;;7.10;;
22138;SDS011;25815;52.582;13.408;2022-09-09T03:06:37;7.63;;;6.82;;
22138;SDS011;25815;52.582;13.408;2022-09-09T03:09:03;7.97;;;6.70;;
22138;SDS011;25815;52.582;13.408;2022-09-09T03:11:29;7.95;;;6.70;;
22138;SDS011;25815;52.582;13.408;2022-09-09T03:13:55;7.82;;;6.85;;
22138;SDS011;25815;52.582;13.408;2022-09-09T03:16:22;10.00;;;7.03;;
22138;SDS011;25815;52.582;13.408;2022-09-09T03:18:48;7.68;;;6.88;;
22138;SDS011;25815;52.582;13.408;2022-09-09T03:21:14;7.75;;;6.70;;
22138;SDS011;25815;52.582;13.408;2022-09-09T03:23:40;8.10;;;6.78;;
22138;SDS011;25815;52.582;13.408;2022-09-09T03:26:06;9.68;;;7.60;;
22138;SDS011;25815;52.582;13.408;2022-09-09T03:28:32;7.90;;;6.72;;
22138;SDS011;25815;52.582;13.408;2022-09-09T03:31:02;7.68;;;6.53;;
22138;SDS011;25815;52.582;13.408;2022-09-09T03:33:28;8.00;;;6.55;;
22138;SDS011;25815;52.582;13.408;2022-09-09T03:35:54;9.13;;;6.38;;
22138;SDS011;25815;52.582;13.408;2022-09-09T03:38:21;7.55;;;6.22;;
22138;SDS011;25815;52.582;13.408;2022-09-09T03:40:51;6.95;;;6.05;;
22138;SDS011;25815;52.582;13.408;2022-09-09T03:43:20;8.15;;;6.05;;
22138;SDS011;25815;52.582;13.408;2022-09-09T03:45:46;8.15;;;6.18;;
22138;SDS011;25815;52.582;13.408;2022-09-09T03:48:13;6.72;;;6.03;;
22138;SDS011;25815;52.582;13.408;2022-09-09T03:50:43;8.00;;;6.47;;
22138;SDS011;25815;52.582;13.408;2022-09-09T03:53:09;8.23;;;6.70;;
22138;SDS011;25815;52.582;13.408;2022-09-09T03:55:35;7.70;;;6.38;;
22138;SDS011;25815;52.582;13.408;2022-09-09T03:58:01;7.68;;;6.30;;
22138;SDS011;25815;52.582;13.408;2022-09-09T04:00:27;7.22;;;5.82;;
22138;SDS011;25815;52.582;13.408;2022-09-09T04:02:53;7.25;;;6.18;;
22138;SDS011;25815;52.582;13.408;2022-09-09T04:05:21;6.90;;;6.15;;
22138;SDS011;25815;52.582;13.408;2022-09-09T04:07:47;8.35;;;5.82;;
22138;SDS011;25815;52.582;13.408;2022-09-09T04:10:13;10.80;;;6.00;;
22138;SDS011;25815;52.582;13.408;2022-09-09T04:12:40;9.18;;;6.43;;
22138;SDS011;25815;52.582;13.408;2022-09-09T04:15:06;9.70;;;5.63;;
22138;SDS011;25815;52.582;13.408;2022-09-09T04:17:32;8.93;;;5.97;;
22138;SDS011;25815;52.582;13.408;2022-09-09T04:19:58;7.85;;;5.25;;
22138;SDS011;25815;52.582;13.408;2022-09-09T04:22:26;5.82;;;5.15;;
22138;SDS011;25815;52.582;13.408;2022-09-09T04:24:51;7.18;;;5.78;;
22138;SDS011;25815;52.582;13.408;2022-09-09T04:27:17;7.45;;;5.47;;
22138;SDS011;25815;52.582;13.408;2022-09-09T04:29:43;7.55;;;5.90;;
22138;SDS011;25815;52.582;13.408;2022-09-09T04:32:09;14.13;;;5.95;;
22138;SDS011;25815;52.582;13.408;2022-09-09T04:34:35;8.85;;;6.78;;
22138;SDS011;25815;52.582;13.408;2022-09-09T04:37:02;6.93;;;6.10;;
22138;SDS011;25815;52.582;13.408;2022-09-09T04:39:28;8.55;;;5.88;;
22138;SDS011;25815;52.582;13.408;2022-09-09T04:41:54;7.00;;;5.60;;
22138;SDS011;25815;52.582;13.408;2022-09-09T04:44:20;7.13;;;5.88;;
22138;SDS011;25815;52.582;13.408;2022-09-09T04:46:46;6.45;;;5.22;;
22138;SDS011;25815;52.582;13.408;2022-09-09T04:49:12;7.10;;;5.72;;
22138;SDS011;25815;52.582;13.408;2022-09-09T04:51:38;7.97;;;5.85;;
22138;SDS011;25815;52.582;13.408;2022-09-09T04:54:04;7.68;;;6.22;;
22138;SDS011;25815;52.582;13.408;2022-09-09T04:56:30;8.50;;;5.95;;
22138;SDS011;25815;52.582;13.408;2022-09-09T04:58:56;5.95;;;5.35;;
22138;SDS011;25815;52.582;13.408;2022-09-09T05:01:22;9.05;;;5.53;;
22138;SDS011;25815;52.582;13.408;2022-09-09T05:03:49;6.53;;;5.35;;
22138;SDS011;25815;52.582;13.408;2022-09-09T05:06:16;5.50;;;4.57;;
22138;SDS011;25815;52.582;13.408;2022-09-09T05:08:44;7.43;;;5.20;;
22138;SDS011;25815;52.582;13.408;2022-09-09T05:11:14;7.25;;;5.20;;
22138;SDS011;25815;52.582;13.408;2022-09-09T05:13:41;5.95;;;5.20;;
22138;SDS011;25815;52.582;13.408;2022-09-09T05:16:07;5.97;;;5.10;;
22138;SDS011;25815;52.582;13.408;2022-09-09T05:18:35;6.43;;;5.20;;
22138;SDS011;25815;52.582;13.408;2022-09-09T05:21:01;7.07;;;5.43;;
22138;SDS011;25815;52.582;13.408;2022-09-09T05:23:27;9.15;;;5.72;;
22138;SDS011;25815;52.582;13.408;2022-09-09T05:25:55;6.85;;;5.65;;
22138;SDS011;25815;52.582;13.408;2022-09-09T05:28:21;6.10;;;4.68;;
22138;SDS011;25815;52.582;13.408;2022-09-09T05:30:54;7.43;;;5.38;;
22138;SDS011;25815;52.582;13.408;2022-09-09T05:33:20;7.88;;;4.70;;
22138;SDS011;25815;52.582;13.408;2022-09-09T05:35:46;6.78;;;4.53;;
22138;SDS011;25815;52.582;13.408;2022-09-09T05:38:12;8.13;;;5.15;;
22138;SDS011;25815;52.582;13.408;2022-09-09T05:40:39;6.97;;;4.78;;
22138;SDS011;25815;52.582;13.408;2022-09-09T05:43:07;11.85;;;5.93;;
22138;SDS011;25815;52.582;13.408;2022-09-09T05:45:33;9.45;;;4.70;;
22138;SDS011;25815;52.582;13.408;2022-09-09T05:47:59;7.45;;;4.72;;
22138;SDS011;25815;52.582;13.408;2022-09-09T05:50:26;7.15;;;4.68;;
22138;SDS011;25815;52.582;13.408;2022-09-09T05:52:54;9.38;;;4.60;;
22138;SDS011;25815;52.582;13.408;2022-09-09T05:55:20;7.18;;;4.85;;
22138;SDS011;25815;52.582;13.408;2022-09-09T05:57:48;6.72;;;4.57;;
22138;SDS011;25815;52.582;13.408;2022-09-09T06:00:16;6.45;;;4.50;;
22138;SDS011;25815;52.582;13.408;2022-09-09T06:02:42;6.85;;;4.75;;
22138;SDS011;25815;52.582;13.408;2022-09-09T06:05:08;7.40;;;4.60;;
22138;SDS011;25815;52.582;13.408;2022-09-09T06:07:35;5.45;;;4.50;;
22138;SDS011;25815;52.582;13.408;2022-09-09T06:10:02;8.07;;;4.22;;
22138;SDS011;25815;52.582;13.408;2022-09-09T06:12:28;6.93;;;3.88;;
22138;SDS011;25815;52.582;13.408;2022-09-09T06:14:54;8.68;;;4.50;;
22138;SDS011;25815;52.582;13.408;2022-09-09T06:17:20;6.72;;;4.38;;
22138;SDS011;25815;52.582;13.408;2022-09-09T06:19:46;7.32;;;4.45;;
22138;SDS011;25815;52.582;13.408;2022-09-09T06:22:12;5.90;;;3.95;;
22138;SDS011;25815;52.582;13.408;2022-09-09T06:24:38;6.40;;;4.40;;
22138;SDS011;25815;52.582;13.408;2022-09-09T06:27:04;6.35;;;3.97;;
22138;SDS011;25815;52.582;13.408;2022-09-09T06:29:30;5.80;;;3.92;;
22138;SDS011;25815;52.582;13.408;2022-09-09T06:31:56;7.75;;;3.72;;
22138;SDS011;25815;52.582;13.408;2022-09-09T06:34:23;5.45;;;3.47;;
22138;SDS011;25815;52.582;13.408;2022-09-09T06:36:49;6.25;;;3.70;;
22138;SDS011;25815;52.582;13.408;2022-09-09T06:39:15;6.35;;;3.90;;
22138;SDS011;25815;52.582;13.408;2022-09-09T06:41:41;7.90;;;4.00;;
22138;SDS011;25815;52.582;13.408;2022-09-09T06:44:07;5.88;;;3.25;;
22138;SDS011;25815;52.582;13.408;2022-09-09T06:46:36;9.30;;;3.30;;
22138;SDS011;25815;52.582;13.408;2022-09-09T06:49:03;5.95;;;3.13;;
22138;SDS011;25815;52.582;13.408;2022-09-09T06:51:30;4.13;;;3.33;;
22138;SDS011;25815;52.582;13.408;2022-09-09T06:53:57;5.65;;;3.20;;
22138;SDS011;25815;52.582;13.408;2022-09-09T06:56:24;4.38;;;2.80;;
22138;SDS011;25815;52.582;13.408;2022-09-09T06:58:52;4.38;;;3.35;;
22138;SDS011;25815;52.582;13.408;2022-09-09T07:01:20;6.07;;;2.60;;
22138;SDS011;25815;52.582;13.408;2022-09-09T07:03:47;5.45;;;2.90;;
22138;SDS011;25815;52.582;13.408;2022-09-09T07:06:14;4.45;;;2.97;;
22138;SDS011;25815;52.582;13.408;2022-09-09T07:08:42;3.90;;;2.73;;
22138;SDS011;25815;52.582;13.408;2022-09-09T07:11:08;5.80;;;2.70;;
22138;SDS011;25815;52.582;13.408;2022-09-09T07:13:34;5.05;;;2.70;;
22138;SDS011;25815;52.582;13.408;2022-09-09T07:16:10;5.95;;;2.65;;
22138;SDS011;25815;52.582;13.408;2022-09-09T07:18:37;5.97;;;3.00;;
22138;SDS011;25815;52.582;13.408;2022-09-09T07:21:03;6.03;;;2.72;;
22138;SDS011;25815;52.582;13.408;2022-09-09T07:23:29;7.55;;;3.63;;
22138;SDS011;25815;52.582;13.408;2022-09-09T07:25:56;7.28;;;3.28;;
22138;SDS011;25815;52.582;13.408;2022-09-09T07:28:23;4.72;;;2.70;;
22138;SDS011;25815;52.582;13.408;2022-09-09T07:30:52;3.88;;;2.67;;
22138;SDS011;25815;52.582;13.408;2022-09-09T07:33:18;5.90;;;2.67;;
22138;SDS011;25815;52.582;13.408;2022-09-09T07:35:45;5.65;;;2.35;;
22138;SDS011;25815;52.582;13.408;2022-09-09T07:38:10;6.43;;;2.97;;
22138;SDS011;25815;52.582;13.408;2022-09-09T07:40:36;5.47;;;2.78;;
22138;SDS011;25815;52.582;13.408;2022-09-09T07:43:03;4.82;;;2.70;;
22138;SDS011;25815;52.582;13.408;2022-09-09T07:45:29;4.45;;;2.38;;
22138;SDS011;25815;52.582;13.408;2022-09-09T07:47:57;4.50;;;2.40;;
22138;SDS011;25815;52.582;13.408;2022-09-09T07:50:23;5.93;;;2.13;;
22138;SDS011;25815;52.582;13.408;2022-09-09T07:52:50;3.97;;;2.47;;
22138;SDS011;25815;52.582;13.408;2022-09-09T07:55:16;5.28;;;2.20;;
22138;SDS011;25815;52.582;13.408;2022-09-09T07:57:42;5.90;;;2.10;;
22138;SDS011;25815;52.582;13.408;2022-09-09T08:00:08;6.43;;;2.00;;
22138;SDS011;25815;52.582;13.408;2022-09-09T08:02:35;4.70;;;1.98;;
22138;SDS011;25815;52.582;13.408;2022-09-09T08:05:01;6.15;;;2.03;;
22138;SDS011;25815;52.582;13.408;2022-09-09T08:07:27;5.50;;;2.00;;
22138;SDS011;25815;52.582;13.408;2022-09-09T08:09:53;2.80;;;1.92;;
22138;SDS011;25815;52.582;13.408;2022-09-09T08:12:20;6.50;;;2.20;;
22138;SDS011;25815;52.582;13.408;2022-09-09T08:14:46;4.90;;;2.00;;
22138;SDS011;25815;52.582;13.408;2022-09-09T08:17:13;3.33;;;2.10;;
22138;SDS011;25815;52.582;13.408;2022-09-09T08:19:39;4.90;;;2.60;;
22138;SDS011;25815;52.582;13.408;2022-09-09T08:22:05;4.88;;;1.95;;
22138;SDS011;25815;52.582;13.408;2022-09-09T08:24:32;4.20;;;1.73;;
22138;SDS011;25815;52.582;13.408;2022-09-09T08:26:58;3.90;;;1.90;;
22138;SDS011;25815;52.582;13.408;2022-09-09T08:29:24;3.50;;;1.80;;
22138;SDS011;25815;52.582;13.408;2022-09-09T08:31:54;5.32;;;1.65;;
22138;SDS011;25815;52.582;13.408;2022-09-09T08:34:22;5.70;;;2.42;;
22138;SDS011;25815;52.582;13.408;2022-09-09T08:36:48;5.63;;;1.88;;
22138;SDS011;25815;52.582;13.408;2022-09-09T08:39:15;6.80;;;1.90;;
22138;SDS011;25815;52.582;13.408;2022-09-09T08:44:13;3.10;;;2.00;;
22138;SDS011;25815;52.582;13.408;2022-09-09T08:46:49;6.40;;;1.70;;
22138;SDS011;25815;52.582;13.408;2022-09-09T08:49:30;6.25;;;1.27;;
22138;SDS011;25815;52.582;13.408;2022-09-09T08:52:01;5.22;;;1.23;;
22138;SDS011;25815;52.582;13.408;2022-09-09T08:54:30;4.95;;;1.10;;
22138;SDS011;25815;52.582;13.408;2022-09-09T08:59:23;3.47;;;1.10;;
22138;SDS011;25815;52.582;13.408;2022-09-09T09:02:36;1.70;;;1.05;;
22138;SDS011;25815;52.582;13.408;2022-09-09T09:12:22;3.38;;;1.00;;
22138;SDS011;25815;52.582;13.408;2022-09-09T09:14:49;3.55;;;1.20;;
22138;SDS011;25815;52.582;13.408;2022-09-09T09:19:42;3.83;;;1.10;;
22138;SDS011;25815;52.582;13.408;2022-09-09T09:24:47;2.55;;;1.02;;
22138;SDS011;25815;52.582;13.408;2022-09-09T09:27:16;3.35;;;1.10;;
22138;SDS011;25815;52.582;13.408;2022-09-09T09:29:44;5.85;;;1.85;;
22138;SDS011;25815;52.582;13.408;2022-09-09T09:32:14;4.75;;;1.70;;
22138;SDS011;25815;52.582;13.408;2022-09-09T09:34:41;2.95;;;1.52;;
22138;SDS011;25815;52.582;13.408;2022-09-09T09:37:17;5.93;;;1.42;;
22138;SDS011;25815;52.582;13.408;2022-09-09T09:39:44;5.20;;;1.20;;
22138;SDS011;25815;52.582;13.408;2022-09-09T09:42:11;5.90;;;1.50;;
22138;SDS011;25815;52.582;13.408;2022-09-09T09:44:39;5.72;;;1.73;;
22138;SDS011;25815;52.582;13.408;2022-09-09T09:47:06;4.20;;;1.42;;
22138;SDS011;25815;52.582;13.408;2022-09-09T09:49:33;3.58;;;1.38;;
22138;SDS011;25815;52.582;13.408;2022-09-09T09:52:02;4.47;;;1.00;;
22138;SDS011;25815;52.582;13.408;2022-09-09T09:54:47;3.50;;;1.45;;
22138;SDS011;25815;52.582;13.408;2022-09-09T09:57:14;2.90;;;1.02;;
22138;SDS011;25815;52.582;13.408;2022-09-09T09:59:41;4.07;;;1.23;;
22138;SDS011;25815;52.582;13.408;2022-09-09T10:02:13;6.07;;;1.35;;
22138;SDS011;25815;52.582;13.408;2022-09-09T10:04:39;4.10;;;1.15;;
22138;SDS011;25815;52.582;13.408;2022-09-09T10:07:10;5.47;;;1.05;;
22138;SDS011;25815;52.582;13.408;2022-09-09T10:09:36;3.33;;;1.17;;
22138;SDS011;25815;52.582;13.408;2022-09-09T10:12:24;5.18;;;1.20;;
22138;SDS011;25815;52.582;13.408;2022-09-09T10:14:58;4.10;;;1.10;;
22138;SDS011;25815;52.582;13.408;2022-09-09T10:20:04;4.32;;;0.80;;
22138;SDS011;25815;52.582;13.408;2022-09-09T10:22:33;6.78;;;1.17;;
22138;SDS011;25815;52.582;13.408;2022-09-09T10:27:50;7.70;;;1.13;;
22138;SDS011;25815;52.582;13.408;2022-09-09T10:30:22;2.92;;;0.93;;
22138;SDS011;25815;52.582;13.408;2022-09-09T10:37:54;2.83;;;0.88;;
22138;SDS011;25815;52.582;13.408;2022-09-09T10:40:34;2.45;;;0.70;;
22138;SDS011;25815;52.582;13.408;2022-09-09T10:45:37;2.10;;;1.02;;
22138;SDS011;25815;52.582;13.408;2022-09-09T10:48:19;2.78;;;0.90;;
22138;SDS011;25815;52.582;13.408;2022-09-09T10:50:53;1.95;;;0.93;;
22138;SDS011;25815;52.582;13.408;2022-09-09T10:53:35;5.93;;;1.08;;
22138;SDS011;25815;52.582;13.408;2022-09-09T10:56:10;2.55;;;0.77;;
22138;SDS011;25815;52.582;13.408;2022-09-09T10:58:49;5.63;;;1.20;;
22138;SDS011;25815;52.582;13.408;2022-09-09T11:01:21;4.82;;;1.10;;
22138;SDS011;25815;52.582;13.408;2022-09-09T11:03:50;3.28;;;0.90;;
22138;SDS011;25815;52.582;13.408;2022-09-09T11:06:19;3.55;;;1.02;;
22138;SDS011;25815;52.582;13.408;2022-09-09T11:08:45;2.65;;;0.98;;
22138;SDS011;25815;52.582;13.408;2022-09-09T11:16:42;3.55;;;0.80;;
22138;SDS011;25815;52.582;13.408;2022-09-09T11:21:45;6.93;;;1.13;;
22138;SDS011;25815;52.582;13.408;2022-09-09T11:26:54;2.17;;;0.90;;
22138;SDS011;25815;52.582;13.408;2022-09-09T11:31:57;3.38;;;0.80;;
22138;SDS011;25815;52.582;13.408;2022-09-09T11:44:39;1.58;;;0.70;;
22138;SDS011;25815;52.582;13.408;2022-09-09T11:47:20;3.33;;;1.00;;
22138;SDS011;25815;52.582;13.408;2022-09-09T11:49:49;1.92;;;0.52;;
22138;SDS011;25815;52.582;13.408;2022-09-09T11:52:22;1.48;;;0.70;;
22138;SDS011;25815;52.582;13.408;2022-09-09T11:54:50;1.88;;;0.70;;
22138;SDS011;25815;52.582;13.408;2022-09-09T12:00:31;2.17;;;0.70;;
22138;SDS011;25815;52.582;13.408;2022-09-09T12:02:58;2.50;;;0.80;;
22138;SDS011;25815;52.582;13.408;2022-09-09T12:05:24;3.00;;;0.80;;
22138;SDS011;25815;52.582;13.408;2022-09-09T12:08:01;3.70;;;0.70;;
22138;SDS011;25815;52.582;13.408;2022-09-09T12:10:32;4.47;;;0.80;;
22138;SDS011;25815;52.582;13.408;2022-09-09T12:13:33;1.98;;;0.90;;
22138;SDS011;25815;52.582;13.408;2022-09-09T12:15:53;4.53;;;1.20;;
22138;SDS011;25815;52.582;13.408;2022-09-09T12:18:23;3.53;;;0.80;;
22138;SDS011;25815;52.582;13.408;2022-09-09T12:20:52;3.63;;;0.70;;
22138;SDS011;25815;52.582;13.408;2022-09-09T12:23:22;2.13;;;1.00;;
22138;SDS011;25815;52.582;13.408;2022-09-09T12:28:31;2.10;;;0.80;;
22138;SDS011;25815;52.582;13.408;2022-09-09T12:31:02;3.05;;;0.95;;
22138;SDS011;25815;52.582;13.408;2022-09-09T12:33:36;6.38;;;0.70;;
22138;SDS011;25815;52.582;13.408;2022-09-09T12:36:05;3.88;;;0.80;;
22138;SDS011;25815;52.582;13.408;2022-09-09T12:38:37;3.33;;;0.60;;
22138;SDS011;25815;52.582;13.408;2022-09-09T12:41:04;5.78;;;1.13;;
22138;SDS011;25815;52.582;13.408;2022-09-09T12:43:30;2.45;;;0.70;;
22138;SDS011;25815;52.582;13.408;2022-09-09T12:46:20;3.00;;;0.70;;
22138;SDS011;25815;52.582;13.408;2022-09-09T12:48:44;2.95;;;0.60;;
22138;SDS011;25815;52.582;13.408;2022-09-09T12:51:24;3.28;;;0.50;;
22138;SDS011;25815;52.582;13.408;2022-09-09T12:53:52;1.23;;;0.80;;
22138;SDS011;25815;52.582;13.408;2022-09-09T12:56:18;1.80;;;0.55;;
22138;SDS011;25815;52.582;13.408;2022-09-09T12:58:46;1.85;;;0.70;;
22138;SDS011;25815;52.582;13.408;2022-09-09T13:01:18;4.88;;;0.80;;
22138;SDS011;25815;52.582;13.408;2022-09-09T13:03:46;1.10;;;0.55;;
22138;SDS011;25815;52.582;13.408;2022-09-09T13:06:21;0.95;;;0.50;;
22138;SDS011;25815;52.582;13.408;2022-09-09T13:08:47;1.30;;;0.50;;
22138;SDS011;25815;52.582;13.408;2022-09-09T13:11:15;3.20;;;0.55;;
22138;SDS011;25815;52.582;13.408;2022-09-09T13:13:42;2.63;;;0.50;;
22138;SDS011;25815;52.582;13.408;2022-09-09T13:16:19;1.17;;;0.57;;
22138;SDS011;25815;52.582;13.408;2022-09-09T13:18:45;2.30;;;0.70;;
22138;SDS011;25815;52.582;13.408;2022-09-09T13:21:11;2.03;;;0.70;;
22138;SDS011;25815;52.582;13.408;2022-09-09T13:23:38;3.38;;;0.75;;
22138;SDS011;25815;52.582;13.408;2022-09-09T13:26:21;3.88;;;0.70;;
22138;SDS011;25815;52.582;13.408;2022-09-09T13:28:48;3.10;;;0.80;;
22138;SDS011;25815;52.582;13.408;2022-09-09T13:33:46;1.70;;;0.38;;
22138;SDS011;25815;52.582;13.408;2022-09-09T13:36:12;2.50;;;0.75;;
22138;SDS011;25815;52.582;13.408;2022-09-09T13:41:50;2.45;;;0.60;;
22138;SDS011;25815;52.582;13.408;2022-09-09T13:46:58;1.83;;;0.40;;
22138;SDS011;25815;52.582;13.408;2022-09-09T13:49:24;2.00;;;0.50;;
22138;SDS011;25815;52.582;13.408;2022-09-09T13:52:02;2.73;;;0.50;;
22138;SDS011;25815;52.582;13.408;2022-09-09T13:54:28;1.88;;;0.55;;
22138;SDS011;25815;52.582;13.408;2022-09-09T13:56:55;2.92;;;0.70;;
22138;SDS011;25815;52.582;13.408;2022-09-09T13:59:21;1.25;;;0.40;;
22138;SDS011;25815;52.582;13.408;2022-09-09T14:01:49;2.13;;;0.50;;
22138;SDS011;25815;52.582;13.408;2022-09-09T14:04:17;2.28;;;0.55;;
22138;SDS011;25815;52.582;13.408;2022-09-09T14:06:43;2.58;;;0.47;;
22138;SDS011;25815;52.582;13.408;2022-09-09T14:09:12;1.95;;;0.40;;
22138;SDS011;25815;52.582;13.408;2022-09-09T14:11:38;2.90;;;0.65;;
22138;SDS011;25815;52.582;13.408;2022-09-09T14:14:05;2.20;;;0.50;;
22138;SDS011;25815;52.582;13.408;2022-09-09T14:16:31;1.48;;;0.50;;
22138;SDS011;25815;52.582;13.408;2022-09-09T14:18:57;1.50;;;0.52;;
22138;SDS011;25815;52.582;13.408;2022-09-09T14:21:24;1.73;;;0.50;;
22138;SDS011;25815;52.582;13.408;2022-09-09T14:23:50;3.13;;;0.70;;
22138;SDS011;25815;52.582;13.408;2022-09-09T14:26:16;2.25;;;0.50;;
22138;SDS011;25815;52.582;13.408;2022-09-09T14:28:43;3.70;;;0.45;;
22138;SDS011;25815;52.582;13.408;2022-09-09T14:31:10;1.65;;;0.50;;
22138;SDS011;25815;52.582;13.408;2022-09-09T14:33:38;3.65;;;0.50;;
22138;SDS011;25815;52.582;13.408;2022-09-09T14:36:04;2.75;;;0.40;;
22138;SDS011;25815;52.582;13.408;2022-09-09T14:38:31;1.67;;;0.50;;
22138;SDS011;25815;52.582;13.408;2022-09-09T14:40:58;1.70;;;0.50;;
22138;SDS011;25815;52.582;13.408;2022-09-09T14:43:24;1.98;;;0.63;;
22138;SDS011;25815;52.582;13.408;2022-09-09T14:45:51;3.33;;;0.68;;
22138;SDS011;25815;52.582;13.408;2022-09-09T14:48:17;2.72;;;0.50;;
22138;SDS011;25815;52.582;13.408;2022-09-09T14:50:44;1.65;;;0.50;;
22138;SDS011;25815;52.582;13.408;2022-09-09T14:53:10;3.13;;;0.70;;
22138;SDS011;25815;52.582;13.408;2022-09-09T14:55:36;2.47;;;0.55;;
22138;SDS011;25815;52.582;13.408;2022-09-09T14:58:03;3.15;;;0.77;;
22138;SDS011;25815;52.582;13.408;2022-09-09T15:00:29;2.63;;;0.70;;
22138;SDS011;25815;52.582;13.408;2022-09-09T15:02:55;3.20;;;0.80;;
22138;SDS011;25815;52.582;13.408;2022-09-09T15:05:21;4.05;;;1.20;;
22138;SDS011;25815;52.582;13.408;2022-09-09T15:07:49;3.05;;;0.70;;
22138;SDS011;25815;52.582;13.408;2022-09-09T15:10:15;3.08;;;0.60;;
22138;SDS011;25815;52.582;13.408;2022-09-09T15:12:42;2.25;;;0.45;;
22138;SDS011;25815;52.582;13.408;2022-09-09T15:15:08;2.72;;;0.77;;
22138;SDS011;25815;52.582;13.408;2022-09-09T15:17:34;2.40;;;0.43;;
22138;SDS011;25815;52.582;13.408;2022-09-09T15:20:01;3.47;;;0.93;;
22138;SDS011;25815;52.582;13.408;2022-09-09T15:22:27;3.63;;;0.75;;
22138;SDS011;25815;52.582;13.408;2022-09-09T15:24:53;2.80;;;0.65;;
22138;SDS011;25815;52.582;13.408;2022-09-09T15:27:19;2.83;;;0.88;;
22138;SDS011;25815;52.582;13.408;2022-09-09T15:29:45;3.22;;;0.88;;
22138;SDS011;25815;52.582;13.408;2022-09-09T15:32:12;3.17;;;0.88;;
22138;SDS011;25815;52.582;13.408;2022-09-09T15:34:38;2.33;;;0.73;;
22138;SDS011;25815;52.582;13.408;2022-09-09T15:37:04;3.50;;;0.63;;
22138;SDS011;25815;52.582;13.408;2022-09-09T15:39:31;3.15;;;0.70;;
22138;SDS011;25815;52.582;13.408;2022-09-09T15:41:57;2.17;;;0.70;;
22138;SDS011;25815;52.582;13.408;2022-09-09T15:44:23;2.35;;;0.80;;
22138;SDS011;25815;52.582;13.408;2022-09-09T15:46:51;4.05;;;0.90;;
22138;SDS011;25815;52.582;13.408;2022-09-09T15:49:21;3.60;;;0.75;;
22138;SDS011;25815;52.582;13.408;2022-09-09T15:51:51;3.25;;;0.80;;
22138;SDS011;25815;52.582;13.408;2022-09-09T15:54:18;1.58;;;0.50;;
22138;SDS011;25815;52.582;13.408;2022-09-09T15:56:45;2.65;;;1.17;;
22138;SDS011;25815;52.582;13.408;2022-09-09T15:59:13;7.07;;;1.50;;
22138;SDS011;25815;52.582;13.408;2022-09-09T16:01:39;2.40;;;0.80;;
22138;SDS011;25815;52.582;13.408;2022-09-09T16:04:06;2.33;;;0.77;;
22138;SDS011;25815;52.582;13.408;2022-09-09T16:06:32;11.13;;;1.38;;
22138;SDS011;25815;52.582;13.408;2022-09-09T16:08:58;3.97;;;0.63;;
22138;SDS011;25815;52.582;13.408;2022-09-09T16:11:26;2.60;;;0.90;;
22138;SDS011;25815;52.582;13.408;2022-09-09T16:13:53;2.75;;;0.85;;
22138;SDS011;25815;52.582;13.408;2022-09-09T16:16:21;2.72;;;0.82;;
22138;SDS011;25815;52.582;13.408;2022-09-09T16:18:48;3.03;;;0.90;;
22138;SDS011;25815;52.582;13.408;2022-09-09T16:21:16;2.45;;;0.95;;